createdAt,value
2018-05-23T00:01:04.587Z,12.43
2018-05-23T00:03:32.139Z,15.77
2018-05-23T00:05:59.681Z,9.07
2018-05-23T00:08:27.273Z,12.97
2018-05-23T00:10:54.817Z,10.07
2018-05-23T00:13:22.389Z,12.10
2018-05-23T00:15:50.061Z,11.57
2018-05-23T00:18:17.609Z,9.50
2018-05-23T00:20:45.152Z,13.67
2018-05-23T00:23:12.865Z,12.63
2018-05-23T00:25:40.415Z,13.37
2018-05-23T00:28:07.952Z,13.00
2018-05-23T00:30:35.544Z,14.20
2018-05-23T00:33:03.096Z,9.83
2018-05-23T00:35:30.680Z,13.40
2018-05-23T00:37:58.305Z,11.73
2018-05-23T00:40:25.866Z,13.37
2018-05-23T00:42:53.415Z,11.20
2018-05-23T00:45:21.170Z,13.60
2018-05-23T00:47:48.724Z,14.07
2018-05-23T00:50:16.285Z,13.87
2018-05-23T00:52:43.904Z,11.80
2018-05-23T00:55:23.065Z,12.17
2018-05-23T00:57:50.796Z,15.13
2018-05-23T01:00:18.342Z,9.60
2018-05-23T01:02:45.910Z,11.57
2018-05-23T01:05:13.631Z,9.10
2018-05-23T01:07:41.181Z,17.60
2018-05-23T01:10:08.749Z,10.47
2018-05-23T01:12:37.364Z,11.43
2018-05-23T01:15:04.939Z,16.17
2018-05-23T01:17:32.473Z,12.63
2018-05-23T01:20:00.079Z,12.57
2018-05-23T01:22:27.667Z,10.73
2018-05-23T01:24:55.217Z,12.50
2018-05-23T01:27:22.946Z,14.07
2018-05-23T01:29:50.493Z,12.83
2018-05-23T01:32:18.049Z,11.23
2018-05-23T01:34:45.789Z,12.03
2018-05-23T01:37:13.324Z,14.10
2018-05-23T01:39:40.856Z,11.90
2018-05-23T01:42:08.459Z,13.20
2018-05-23T01:44:36.015Z,15.77
2018-05-23T01:47:03.577Z,14.00
2018-05-23T01:49:31.161Z,16.43
2018-05-23T01:51:58.712Z,13.40
2018-05-23T01:54:26.263Z,14.70
2018-05-23T01:56:53.867Z,15.20
2018-05-23T01:59:21.420Z,13.47
2018-05-23T02:01:48.991Z,16.07
2018-05-23T02:04:16.755Z,19.27
2018-05-23T02:06:44.328Z,14.70
2018-05-23T02:09:11.875Z,15.13
2018-05-23T02:11:39.461Z,15.63
2018-05-23T02:14:07.012Z,20.10
2018-05-23T02:16:34.564Z,19.57
2018-05-23T02:19:02.329Z,16.50
2018-05-23T02:21:29.868Z,14.87
2018-05-23T02:23:57.418Z,16.73
2018-05-23T02:26:25.015Z,19.20
2018-05-23T02:28:52.571Z,16.23
2018-05-23T02:31:20.142Z,19.23
2018-05-23T02:33:47.836Z,15.53
2018-05-23T02:36:15.395Z,18.23
2018-05-23T02:38:42.970Z,15.97
2018-05-23T02:41:10.569Z,14.77
2018-05-23T02:43:38.165Z,16.90
2018-05-23T02:46:05.757Z,18.97
2018-05-23T02:48:33.673Z,19.67
2018-05-23T02:51:01.254Z,17.70
2018-05-23T02:53:28.808Z,16.13
2018-05-23T02:55:56.431Z,18.67
2018-05-23T02:58:23.977Z,16.43
2018-05-23T03:00:51.531Z,17.47
2018-05-23T03:03:19.109Z,22.07
2018-05-23T03:05:46.656Z,22.03
2018-05-23T03:08:14.203Z,21.23
2018-05-23T03:10:42.545Z,18.13
2018-05-23T03:13:10.112Z,15.47
2018-05-23T03:15:37.664Z,16.23
2018-05-23T03:18:05.267Z,17.33
2018-05-23T03:20:32.814Z,17.27
2018-05-23T03:23:00.354Z,21.73
2018-05-23T03:25:28.259Z,16.90
2018-05-23T03:27:55.839Z,18.07
2018-05-23T03:30:23.408Z,15.30
2018-05-23T03:32:50.999Z,12.33
2018-05-23T03:35:18.559Z,15.43
2018-05-23T03:37:46.125Z,14.37
2018-05-23T03:40:13.709Z,12.13
2018-05-23T03:42:41.256Z,15.60
2018-05-23T03:45:08.817Z,12.87
2018-05-23T03:47:36.517Z,15.87
2018-05-23T03:50:04.970Z,18.63
2018-05-23T03:52:33.300Z,16.77
2018-05-23T03:55:01.035Z,16.07
2018-05-23T03:57:28.576Z,18.17
2018-05-23T04:00:07.801Z,13.53
2018-05-23T04:02:46.968Z,16.17
2018-05-23T04:08:22.460Z,14.30
2018-05-23T04:10:50.041Z,17.30
2018-05-23T04:13:17.594Z,15.77
2018-05-23T04:15:45.153Z,18.67
2018-05-23T04:18:12.752Z,15.60
2018-05-23T04:20:40.299Z,15.90
2018-05-23T04:23:07.851Z,16.13
2018-05-23T04:25:35.553Z,15.30
2018-05-23T04:28:03.096Z,14.60
2018-05-23T04:30:30.748Z,16.47
2018-05-23T04:32:58.319Z,15.43
2018-05-23T04:35:25.869Z,15.20
2018-05-23T04:37:53.437Z,15.27
2018-05-23T04:40:21.037Z,16.27
2018-05-23T04:42:48.597Z,18.80
2018-05-23T04:45:16.165Z,20.98
2018-05-23T04:47:43.752Z,20.75
2018-05-23T04:50:11.402Z,16.15
2018-05-23T04:52:38.951Z,28.77
2018-05-23T04:55:06.689Z,16.10
2018-05-23T04:57:34.251Z,18.95
2018-05-23T05:00:01.809Z,22.37
2018-05-23T05:02:29.400Z,16.15
2018-05-23T05:04:56.997Z,18.12
2018-05-23T05:07:24.561Z,15.10
2018-05-23T05:09:52.141Z,24.70
2018-05-23T05:12:19.750Z,19.20
2018-05-23T05:14:47.292Z,21.58
2018-05-23T05:17:14.877Z,20.88
2018-05-23T05:19:42.432Z,24.48
2018-05-23T05:22:09.978Z,20.80
2018-05-23T05:24:37.654Z,26.87
2018-05-23T05:27:05.212Z,21.13
2018-05-23T05:29:32.753Z,23.47
2018-05-23T05:32:00.494Z,23.30
2018-05-23T05:34:29.040Z,20.43
2018-05-23T05:36:56.613Z,23.00
2018-05-23T05:39:24.418Z,23.87
2018-05-23T05:41:51.968Z,31.97
2018-05-23T05:44:19.523Z,26.97
2018-05-23T05:46:47.131Z,25.93
2018-05-23T05:49:14.696Z,21.53
2018-05-23T05:51:42.269Z,25.90
2018-05-23T05:54:10.152Z,24.33
2018-05-23T05:56:37.695Z,26.03
2018-05-23T05:59:05.258Z,21.87
2018-05-23T06:01:33.168Z,20.17
2018-05-23T06:04:00.719Z,23.93
2018-05-23T06:06:28.266Z,24.60
2018-05-23T06:08:55.841Z,23.03
2018-05-23T06:11:23.425Z,24.10
2018-05-23T06:13:50.971Z,23.63
2018-05-23T06:16:18.554Z,23.43
2018-05-23T06:18:46.114Z,24.80
2018-05-23T06:21:13.675Z,24.20
2018-05-23T06:23:41.261Z,26.23
2018-05-23T06:26:08.840Z,22.90
2018-05-23T06:28:36.398Z,30.83
2018-05-23T06:31:04.061Z,22.37
2018-05-23T06:33:31.629Z,21.93
2018-05-23T06:35:59.193Z,25.17
2018-05-23T06:38:26.789Z,21.13
2018-05-23T06:40:54.361Z,22.97
2018-05-23T06:43:21.926Z,23.60
2018-05-23T06:45:49.520Z,23.60
2018-05-23T06:48:17.080Z,30.47
2018-05-23T06:50:44.641Z,24.50
2018-05-23T06:53:12.386Z,27.87
2018-05-23T06:55:39.924Z,25.93
2018-05-23T06:58:07.482Z,25.20
2018-05-23T07:00:35.064Z,30.07
2018-05-23T07:03:02.620Z,29.03
2018-05-23T07:05:30.187Z,26.23
2018-05-23T07:07:57.773Z,22.90
2018-05-23T07:10:25.333Z,24.57
2018-05-23T07:12:52.879Z,28.37
2018-05-23T07:15:20.457Z,22.90
2018-05-23T07:17:48.044Z,27.13
2018-05-23T07:20:15.610Z,23.00
2018-05-23T07:22:43.350Z,20.50
2018-05-23T07:25:10.923Z,25.57
2018-05-23T07:27:38.475Z,21.00
2018-05-23T07:30:06.335Z,23.53
2018-05-23T07:32:33.881Z,22.23
2018-05-23T07:35:01.430Z,26.23
2018-05-23T07:37:29.028Z,23.67
2018-05-23T07:39:56.592Z,19.70
2018-05-23T07:42:24.133Z,24.03
2018-05-23T07:44:51.723Z,36.33
2018-05-23T07:47:19.276Z,19.47
2018-05-23T07:49:46.827Z,21.33
2018-05-23T07:52:14.411Z,21.33
2018-05-23T07:54:41.961Z,23.57
2018-05-23T07:57:09.552Z,32.47
2018-05-23T07:59:37.117Z,24.40
2018-05-23T08:02:04.679Z,18.17
2018-05-23T08:04:32.268Z,22.93
2018-05-23T08:07:00.208Z,19.27
2018-05-23T08:09:27.762Z,19.93
2018-05-23T08:11:55.363Z,21.70
2018-05-23T08:14:22.938Z,20.07
2018-05-23T08:16:50.504Z,16.90
2018-05-23T08:19:18.086Z,26.37
2018-05-23T08:21:45.639Z,16.63
2018-05-23T08:24:13.188Z,16.17
2018-05-23T08:26:40.792Z,24.53
2018-05-23T08:29:08.346Z,18.83
2018-05-23T08:31:35.998Z,19.73
2018-05-23T08:34:03.927Z,25.00
2018-05-23T08:36:31.555Z,15.67
2018-05-23T08:38:59.093Z,19.83
2018-05-23T08:41:26.771Z,19.03
2018-05-23T08:43:54.333Z,18.60
2018-05-23T08:46:21.892Z,19.43
2018-05-23T08:48:49.573Z,23.70
2018-05-23T08:51:17.124Z,18.03
2018-05-23T08:53:44.672Z,28.83
2018-05-23T08:56:12.352Z,18.00
2018-05-23T08:58:39.900Z,28.77
2018-05-23T09:01:07.461Z,13.80
2018-05-23T09:03:35.149Z,14.53
2018-05-23T09:06:02.696Z,13.43
2018-05-23T09:08:30.248Z,14.13
2018-05-23T09:10:57.997Z,16.80
2018-05-23T09:13:25.566Z,12.57
2018-05-23T09:15:53.113Z,9.03
2018-05-23T09:18:20.806Z,18.27
2018-05-23T09:20:48.350Z,46.47
2018-05-23T09:23:15.904Z,15.10
2018-05-23T09:25:43.653Z,10.33
2018-05-23T09:28:11.207Z,11.73
2018-05-23T09:30:38.757Z,9.17
2018-05-23T09:33:06.487Z,8.00
2018-05-23T09:35:34.050Z,10.50
2018-05-23T09:38:01.592Z,8.23
2018-05-23T09:40:29.172Z,11.80
2018-05-23T09:42:56.729Z,13.87
2018-05-23T09:45:24.280Z,7.57
2018-05-23T09:47:51.870Z,10.17
2018-05-23T09:50:19.432Z,8.60
2018-05-23T09:52:46.979Z,11.20
2018-05-23T09:55:14.683Z,17.70
2018-05-23T09:57:42.243Z,9.57
2018-05-23T10:00:09.835Z,11.10
2018-05-23T10:02:37.419Z,11.50
2018-05-23T10:05:04.972Z,15.97
2018-05-23T10:07:32.530Z,8.60
2018-05-23T10:10:00.146Z,9.27
2018-05-23T10:12:27.686Z,6.33
2018-05-23T10:14:55.964Z,9.80
2018-05-23T10:17:23.884Z,6.13
2018-05-23T10:19:51.436Z,9.53
2018-05-23T10:22:19.001Z,10.07
2018-05-23T10:24:46.587Z,10.13
2018-05-23T10:27:14.146Z,9.73
2018-05-23T10:29:41.697Z,7.20
2018-05-23T10:32:09.278Z,10.27
2018-05-23T10:34:36.837Z,7.30
2018-05-23T10:37:04.394Z,10.80
2018-05-23T10:39:32.084Z,8.07
2018-05-23T10:41:59.670Z,8.87
2018-05-23T10:44:27.245Z,11.97
2018-05-23T10:46:54.996Z,11.20
2018-05-23T10:49:22.549Z,9.87
2018-05-23T10:51:50.098Z,8.43
2018-05-23T10:54:17.663Z,7.53
2018-05-23T10:56:45.215Z,12.50
2018-05-23T10:59:12.764Z,12.07
2018-05-23T11:01:40.366Z,12.60
2018-05-23T11:04:07.920Z,8.93
2018-05-23T11:06:35.522Z,15.23
2018-05-23T11:09:03.238Z,9.27
2018-05-23T11:11:30.754Z,9.30
2018-05-23T11:13:58.320Z,12.27
2018-05-23T11:16:26.087Z,7.77
2018-05-23T11:18:53.640Z,7.07
2018-05-23T11:21:21.235Z,10.80
2018-05-23T11:23:48.811Z,5.63
2018-05-23T11:26:16.357Z,6.13
2018-05-23T11:28:43.908Z,9.00
2018-05-23T11:31:11.507Z,13.97
2018-05-23T11:33:39.054Z,7.03
2018-05-23T11:36:06.614Z,6.50
2018-05-23T11:38:34.296Z,8.80
2018-05-23T11:41:01.858Z,11.27
2018-05-23T11:43:29.399Z,6.97
2018-05-23T11:45:57.088Z,6.70
2018-05-23T11:48:24.652Z,9.07
2018-05-23T11:50:52.209Z,9.33
2018-05-23T11:53:19.794Z,16.83
2018-05-23T11:55:47.339Z,9.27
2018-05-23T11:58:14.888Z,7.47
2018-05-23T12:00:42.497Z,6.97
2018-05-23T12:03:10.066Z,10.33
2018-05-23T12:05:37.612Z,5.60
2018-05-23T12:08:05.205Z,7.10
2018-05-23T12:10:32.802Z,7.83
2018-05-23T12:13:00.355Z,5.83
2018-05-23T12:15:28.061Z,6.03
2018-05-23T12:17:55.622Z,7.63
2018-05-23T12:20:23.196Z,9.87
2018-05-23T12:22:50.795Z,6.00
2018-05-23T12:25:18.373Z,6.83
2018-05-23T12:27:45.930Z,10.93
2018-05-23T12:30:13.519Z,7.57
2018-05-23T12:32:41.073Z,6.63
2018-05-23T12:35:08.616Z,12.27
2018-05-23T12:37:36.208Z,10.03
2018-05-23T12:40:03.791Z,14.83
2018-05-23T12:42:31.332Z,6.63
2018-05-23T12:44:59.059Z,8.93
2018-05-23T12:47:26.609Z,7.30
2018-05-23T12:49:54.171Z,7.47
2018-05-23T12:52:21.769Z,8.27
2018-05-23T12:54:49.325Z,9.00
2018-05-23T12:57:16.875Z,10.70
2018-05-23T12:59:44.458Z,7.23
2018-05-23T13:02:12.008Z,7.80
2018-05-23T13:04:39.741Z,7.47
2018-05-23T13:07:07.279Z,8.27
2018-05-23T13:09:34.834Z,7.17
2018-05-23T13:12:02.531Z,8.93
2018-05-23T13:14:30.077Z,7.87
2018-05-23T13:16:57.621Z,7.53
2018-05-23T13:19:25.319Z,7.90
2018-05-23T13:21:52.882Z,12.20
2018-05-23T13:24:20.434Z,8.87
2018-05-23T13:26:48.122Z,12.07
2018-05-23T13:29:15.668Z,7.30
2018-05-23T13:31:43.219Z,7.67
2018-05-23T13:34:10.902Z,10.10
2018-05-23T13:36:38.449Z,8.00
2018-05-23T13:39:06.027Z,7.03
2018-05-23T13:41:33.622Z,8.93
2018-05-23T13:44:01.171Z,10.30
2018-05-23T13:46:28.776Z,7.80
2018-05-23T13:48:56.383Z,10.53
2018-05-23T13:51:23.920Z,9.53
2018-05-23T13:53:51.473Z,9.93
2018-05-23T13:56:19.326Z,16.53
2018-05-23T13:58:46.878Z,12.80
2018-05-23T14:01:14.425Z,11.63
2018-05-23T14:03:42.014Z,12.47
2018-05-23T14:06:09.563Z,14.10
2018-05-23T14:08:37.121Z,11.07
2018-05-23T14:11:04.860Z,11.57
2018-05-23T14:13:32.404Z,12.33
2018-05-23T14:15:59.967Z,16.73
2018-05-23T14:18:27.557Z,17.53
2018-05-23T14:20:55.212Z,11.53
2018-05-23T14:23:22.725Z,12.37
2018-05-23T14:25:50.487Z,16.87
2018-05-23T14:28:18.048Z,15.60
2018-05-23T14:30:45.608Z,13.43
2018-05-23T14:33:13.346Z,17.23
2018-05-23T14:35:40.896Z,10.23
2018-05-23T14:38:08.476Z,12.57
2018-05-23T14:40:36.088Z,16.87
2018-05-23T14:43:03.635Z,12.67
2018-05-23T14:45:31.185Z,12.97
2018-05-23T14:47:59.120Z,14.87
2018-05-23T14:50:26.678Z,10.17
2018-05-23T14:52:54.234Z,10.40
2018-05-23T14:55:21.988Z,16.13
2018-05-23T14:57:49.543Z,15.13
2018-05-23T15:00:17.092Z,8.77
2018-05-23T15:02:44.680Z,10.70
2018-05-23T15:05:12.241Z,13.53
2018-05-23T15:07:39.792Z,11.73
2018-05-23T15:10:07.531Z,10.23
2018-05-23T15:12:35.077Z,9.73
2018-05-23T15:15:02.625Z,9.20
2018-05-23T15:17:30.322Z,7.03
2018-05-23T15:19:57.982Z,6.40
2018-05-23T15:22:25.466Z,4.97
2018-05-23T15:24:53.199Z,4.20
2018-05-23T15:27:20.863Z,5.83
2018-05-23T15:29:48.358Z,4.03
2018-05-23T15:32:15.950Z,3.93
2018-05-23T15:34:43.492Z,6.40
2018-05-23T15:37:11.064Z,3.17
2018-05-23T15:39:38.643Z,6.50
2018-05-23T15:42:06.216Z,5.23
2018-05-23T15:44:33.764Z,7.40
2018-05-23T15:47:01.452Z,2.60
2018-05-23T15:49:29.029Z,2.50
2018-05-23T15:51:56.586Z,2.73
2018-05-23T15:54:24.497Z,2.33
2018-05-23T15:56:53.287Z,5.03
2018-05-23T15:59:20.841Z,6.13
2018-05-23T16:01:48.469Z,10.00
2018-05-23T16:04:16.058Z,2.80
2018-05-23T16:06:43.609Z,5.37
2018-05-23T16:09:11.297Z,2.63
2018-05-23T16:11:38.852Z,3.10
2018-05-23T16:14:06.412Z,3.83
2018-05-23T16:16:33.989Z,3.40
2018-05-23T16:19:01.564Z,3.90
2018-05-23T16:21:29.123Z,3.40
2018-05-23T16:23:57.035Z,3.37
2018-05-23T16:26:24.604Z,7.03
2018-05-23T16:28:52.640Z,3.53
2018-05-23T16:31:20.386Z,3.83
2018-05-23T16:33:47.956Z,7.10
2018-05-23T16:36:15.492Z,7.43
2018-05-23T16:38:43.183Z,5.57
2018-05-23T16:41:10.773Z,4.00
2018-05-23T16:43:38.315Z,5.57
2018-05-23T16:46:06.078Z,6.00
2018-05-23T16:48:33.631Z,3.20
2018-05-23T16:51:01.178Z,6.80
2018-05-23T16:53:28.761Z,4.57
2018-05-23T16:55:56.338Z,4.90
2018-05-23T16:58:23.911Z,4.77
2018-05-23T17:00:51.501Z,4.07
2018-05-23T17:03:19.049Z,3.40
2018-05-23T17:05:46.962Z,3.80
2018-05-23T17:08:14.544Z,4.37
2018-05-23T17:10:42.105Z,4.30
2018-05-23T17:13:10.000Z,6.23
2018-05-23T17:15:37.575Z,6.03
2018-05-23T17:18:05.152Z,5.03
2018-05-23T17:20:32.765Z,7.80
2018-05-23T17:23:00.338Z,9.20
2018-05-23T17:25:27.887Z,5.40
2018-05-23T17:27:55.612Z,6.90
2018-05-23T17:30:23.173Z,8.27
2018-05-23T17:32:50.718Z,6.20
2018-05-23T17:35:18.332Z,9.13
2018-05-23T17:37:45.902Z,5.97
2018-05-23T17:40:13.529Z,9.17
2018-05-23T17:42:41.196Z,6.17
2018-05-23T17:45:08.793Z,7.97
2018-05-23T17:47:36.357Z,6.50
2018-05-23T17:50:04.083Z,6.77
2018-05-23T17:52:31.648Z,9.70
2018-05-23T17:54:59.260Z,8.80
2018-05-23T17:57:26.945Z,11.77
2018-05-23T17:59:54.496Z,8.30
2018-05-23T18:02:22.058Z,6.97
2018-05-23T18:04:49.669Z,9.50
2018-05-23T18:07:17.279Z,11.17
2018-05-23T18:09:44.838Z,7.47
2018-05-23T18:12:12.444Z,9.80
2018-05-23T18:14:40.021Z,7.43
2018-05-23T18:17:07.585Z,9.87
2018-05-23T18:19:35.178Z,8.70
2018-05-23T18:22:02.723Z,8.57
2018-05-23T18:24:30.271Z,8.10
2018-05-23T18:26:58.047Z,8.53
2018-05-23T18:29:25.692Z,12.27
2018-05-23T18:31:53.214Z,11.80
2018-05-23T18:34:20.798Z,13.60
2018-05-23T18:36:48.353Z,8.73
2018-05-23T18:39:15.923Z,7.63
2018-05-23T18:41:43.533Z,7.03
2018-05-23T18:44:11.097Z,8.70
2018-05-23T18:46:38.667Z,9.77
2018-05-23T18:49:06.243Z,7.50
2018-05-23T18:51:33.805Z,6.50
2018-05-23T18:54:01.370Z,7.03
2018-05-23T18:56:29.092Z,8.97
2018-05-23T18:58:56.645Z,10.60
2018-05-23T19:01:24.209Z,7.13
2018-05-23T19:03:51.975Z,8.00
2018-05-23T19:06:19.527Z,6.73
2018-05-23T19:08:47.064Z,7.90
2018-05-23T19:11:14.641Z,5.83
2018-05-23T19:13:42.208Z,8.47
2018-05-23T19:16:09.761Z,9.27
2018-05-23T19:18:37.367Z,7.23
2018-05-23T19:21:04.967Z,7.83
2018-05-23T19:23:32.541Z,7.90
2018-05-23T19:26:00.159Z,6.53
2018-05-23T19:28:27.708Z,7.63
2018-05-23T19:30:55.266Z,7.20
2018-05-23T19:33:22.913Z,9.73
2018-05-23T19:35:50.476Z,8.80
2018-05-23T19:38:18.014Z,6.87
2018-05-23T19:40:45.589Z,8.17
2018-05-23T19:43:13.161Z,10.37
2018-05-23T19:45:40.715Z,9.37
2018-05-23T19:48:08.348Z,14.30
2018-05-23T19:50:35.896Z,8.60
2018-05-23T19:53:03.456Z,8.93
2018-05-23T19:55:31.044Z,8.03
2018-05-23T19:57:58.631Z,9.63
2018-05-23T20:00:26.229Z,10.27
2018-05-23T20:02:54.306Z,10.73
2018-05-23T20:05:21.867Z,12.37
2018-05-23T20:07:49.410Z,6.97
2018-05-23T20:10:17.037Z,9.73
2018-05-23T20:12:44.602Z,8.23
2018-05-23T20:15:12.144Z,8.73
2018-05-23T20:17:39.896Z,8.73
2018-05-23T20:20:07.469Z,9.77
2018-05-23T20:22:35.023Z,7.90
2018-05-23T20:25:02.848Z,11.83
2018-05-23T20:27:30.412Z,10.00
2018-05-23T20:29:57.974Z,18.83
2018-05-23T20:32:25.747Z,10.10
2018-05-23T20:34:53.361Z,10.13
2018-05-23T20:37:20.945Z,9.70
2018-05-23T20:39:48.525Z,13.30
2018-05-23T20:42:16.084Z,14.33
2018-05-23T20:44:43.652Z,10.17
2018-05-23T20:47:11.239Z,12.83
2018-05-23T20:49:38.845Z,14.17
2018-05-23T20:52:06.429Z,14.00
2018-05-23T20:54:34.178Z,12.33
2018-05-23T20:57:01.740Z,12.30
2018-05-23T20:59:29.285Z,14.03
2018-05-23T21:01:56.868Z,12.20
2018-05-23T21:04:26.343Z,14.90
2018-05-23T21:06:53.901Z,11.87
2018-05-23T21:09:21.607Z,11.10
2018-05-23T21:11:49.168Z,11.77
2018-05-23T21:14:16.725Z,14.30
2018-05-23T21:16:44.461Z,8.33
2018-05-23T21:19:12.021Z,8.97
2018-05-23T21:21:39.586Z,11.67
2018-05-23T21:24:07.181Z,10.47
2018-05-23T21:26:34.747Z,9.40
2018-05-23T21:29:02.292Z,11.57
2018-05-23T21:31:29.893Z,11.60
2018-05-23T21:33:57.447Z,10.93
2018-05-23T21:36:25.000Z,11.60
2018-05-23T21:38:52.744Z,15.03
2018-05-23T21:41:20.292Z,12.97
2018-05-23T21:43:47.857Z,8.63
2018-05-23T21:46:15.456Z,10.23
2018-05-23T21:48:43.076Z,11.83
2018-05-23T21:51:11.140Z,13.33
2018-05-23T21:53:39.063Z,9.87
2018-05-23T21:56:06.617Z,10.87
2018-05-23T21:58:34.164Z,14.10
2018-05-23T22:01:01.723Z,15.37
2018-05-23T22:03:29.275Z,12.00
2018-05-23T22:05:56.966Z,14.67
2018-05-23T22:08:24.556Z,14.87
2018-05-23T22:10:52.121Z,23.90
2018-05-23T22:13:19.693Z,12.83
2018-05-23T22:15:47.241Z,17.23
2018-05-23T22:18:14.814Z,16.50
2018-05-23T22:20:42.418Z,18.13
2018-05-23T22:23:09.977Z,10.77
2018-05-23T22:25:37.523Z,15.50
2018-05-23T22:28:05.261Z,14.20
2018-05-23T22:30:32.883Z,15.60
2018-05-23T22:33:00.388Z,10.93
2018-05-23T22:35:27.964Z,12.07
2018-05-23T22:37:55.510Z,14.20
2018-05-23T22:40:23.088Z,13.23
2018-05-23T22:42:50.693Z,14.63
2018-05-23T22:45:18.253Z,14.20
2018-05-23T22:47:45.801Z,18.03
2018-05-23T22:50:13.378Z,17.87
2018-05-23T22:52:40.932Z,11.17
2018-05-23T22:55:08.509Z,15.03
2018-05-23T22:57:36.089Z,12.07
2018-05-23T23:00:03.651Z,11.90
2018-05-23T23:02:31.204Z,11.20
2018-05-23T23:04:58.792Z,10.50
2018-05-23T23:07:26.360Z,13.23
2018-05-23T23:09:53.913Z,12.53
2018-05-23T23:12:21.477Z,15.27
2018-05-23T23:14:49.016Z,12.47
2018-05-23T23:17:16.568Z,12.57
2018-05-23T23:19:44.326Z,11.70
2018-05-23T23:22:23.615Z,11.70
2018-05-23T23:24:51.328Z,17.80
2018-05-23T23:27:18.877Z,13.57
2018-05-23T23:29:46.483Z,14.93
2018-05-23T23:32:14.093Z,11.90
2018-05-23T23:34:41.637Z,19.77
2018-05-23T23:37:09.187Z,14.50
2018-05-23T23:39:36.772Z,12.73
2018-05-23T23:42:04.318Z,15.13
2018-05-23T23:44:31.873Z,12.47
2018-05-23T23:46:59.779Z,16.30
2018-05-23T23:49:27.342Z,18.93
2018-05-23T23:51:54.875Z,15.93
2018-05-23T23:54:22.596Z,14.40
2018-05-23T23:56:50.135Z,14.90
2018-05-23T23:59:17.679Z,14.70
